Shanwei, China
Current Conditions -  °F | °C
As of 9:00 PM on Sunday 23 Nov 2014 (Local Time) from ZGOW Reporting Station
Clear Clear  
Wind Chill: 70°   Ceiling: Unl
Heat Index: 70°   Visibility: 4mi
Dew Point: 68°   Wind: 7mph
Humidity: 94%   Direction: 70°ENE
Pressure: 30.03"   Gusts: NA
Location:  22.78°N, 115.35°E
Report Text: ZGOW 231300Z 07003MPS 7000 NSC 21/20 Q1017 NOSIG
Loading
Personal Weather Stations






























Interactive Weather Map New forecast layout! Learn more

10-Day Weather Forecast

Advertisements
Track Severe Weather on mobile